tititudorancea.com
Station Historical Data
Daily Summary for October 27, 2018 Units:  Metric    English   Both
« Previous Day
Next Day »
Daily Weekly Monthly Yearly Custom
  High: Low: Average:
Temperature: -17.8 °C 4 °C 10.4 °C
Dew Point: -17.8 °C 2.9 °C 6.9 °C
Humidity: Humidity % 49 % 80 %
Wind Speed: 0 km/h 0 km/h 14.6 km/h
Wind Gust: 0 km/h - -
Wind:- - SW
Pressure: 0 hPa 1015.5 hPa -
Precipitation: 0 mm    
Historical Graphs
 
 
Ararat weather Find more about Weather in Ararat, AU


 



 


Tabular Data for October 27, 2018
Time Temperature Dew Point Pressure Wind Wind Speed Wind Gust Humidity Rainfall Rate (Hourly)
-17.8 °C -17.8 °C 0 hPa Calm     Humidity % 0 mm
00:04 8.3 °C 6.6 °C 1017.8 hPa North 3.7 km/h 2.1 km/h 89 % 0 mm
00:09 8.2 °C 6.4 °C 1017.5 hPa South 5.6 km/h 3.1 km/h 89 % 0 mm
00:14 8.1 °C 6.3 °C 1017.5 hPa South 3.7 km/h 2.4 km/h 89 % 0 mm
00:19 7.9 °C 6.2 °C 1017.5 hPa North 1.9 km/h 0.2 km/h 89 % 0 mm
00:24 7.9 °C 6.3 °C 1017.5 hPa South 3.7 km/h 2.4 km/h 90 % 0 mm
00:29 7.7 °C 6.2 °C 1017.2 hPa Calm     90 % 0 mm
00:34 7.7 °C 6.1 °C 1017.2 hPa South 3.7 km/h   90 % 0 mm
00:39 7.6 °C 6.1 °C 1017.5 hPa South 5.6 km/h 4.7 km/h 90 % 0 mm
00:44 7.7 °C 6.3 °C 1017.5 hPa North 6.4 km/h 4.8 km/h 91 % 0 mm
00:49 7.7 °C 6.3 °C 1017.2 hPa South 5.6 km/h 3.2 km/h 91 % 0 mm
00:54 7.7 °C 6.3 °C 1017.2 hPa Calm     91 % 0 mm
00:59 7.7 °C 6.3 °C 1017.5 hPa North 5.6 km/h 3.4 km/h 91 % 0 mm
01:04 7.7 °C 6.3 °C 1017.2 hPa Calm     91 % 0 mm
01:09 7.7 °C 6.3 °C 1017.2 hPa North 5.6 km/h 1.4 km/h 91 % 0 mm
01:14 7.7 °C 6.3 °C 1017.2 hPa Calm     91 % 0 mm
01:19 7.7 °C 6.3 °C 1017.2 hPa North 3.2 km/h 1.8 km/h 91 % 0 mm
01:24 7.6 °C 6.2 °C 1016.8 hPa Calm     91 % 0 mm
01:29 7.3 °C 5.9 °C 1016.8 hPa Calm     91 % 0 mm
01:34 7.3 °C 5.9 °C 1016.8 hPa North 3.7 km/h 2.4 km/h 91 % 0 mm
01:39 7.2 °C 5.8 °C 1016.8 hPa South 5.6 km/h 4 km/h 91 % 0 mm
01:44 7.2 °C 5.8 °C 1016.8 hPa Calm     91 % 0 mm
01:49 7.1 °C 5.7 °C 1016.8 hPa Calm     91 % 0 mm
01:54 7.1 °C 5.9 °C 1016.8 hPa Calm     92 % 0 mm
01:59 7.1 °C 5.7 °C 1016.5 hPa Calm     91 % 0 mm
02:04 7.1 °C 5.9 °C 1016.1 hPa South 3.7 km/h 0.5 km/h 92 % 0 mm
02:09 7.2 °C 5.9 °C 1016.1 hPa Calm     92 % 0 mm
02:14 7 °C 5.6 °C 1015.8 hPa Calm     91 % 0 mm
02:19 6.8 °C 5.6 °C 1015.8 hPa Calm     92 % 0 mm
02:24 6.6 °C 5.4 °C 1015.8 hPa Calm     92 % 0 mm
02:29 6.5 °C 5.3 °C 1015.8 hPa Calm     92 % 0 mm
02:34 6.4 °C 5.2 °C 1015.8 hPa Calm     92 % 0 mm
02:39 6.3 °C 5.1 °C 1015.8 hPa Calm     92 % 0 mm
02:44 6.2 °C 4.9 °C 1015.8 hPa Calm     92 % 0 mm
02:49 6 °C 4.8 °C 1015.8 hPa Calm     92 % 0 mm
02:54 5.9 °C 4.7 °C 1015.8 hPa Calm     92 % 0 mm
02:59 5.9 °C 4.7 °C 1015.8 hPa Calm     92 % 0 mm
03:04 5.8 °C 4.6 °C 1015.8 hPa Calm     92 % 0 mm
03:09 5.8 °C 4.6 °C 1016.1 hPa South 1.6 km/h 0.2 km/h 92 % 0 mm
03:14 5.7 °C 4.5 °C 1016.1 hPa Calm     92 % 0 mm
03:19 5.6 °C 4.4 °C 1016.1 hPa Calm     92 % 0 mm
03:24 5.6 °C 4.4 °C 1016.1 hPa Calm     92 % 0 mm
03:29 5.4 °C 4.2 °C 1016.1 hPa Calm     92 % 0 mm
03:34 5.3 °C 4.1 °C 1015.8 hPa Calm     92 % 0 mm
03:39 5.3 °C 4.3 °C 1015.8 hPa Calm     93 % 0 mm
03:44 5.3 °C 4.2 °C 1015.8 hPa Calm     93 % 0 mm
03:49 5.4 °C 4.3 °C 1015.8 hPa Calm     93 % 0 mm
03:54 5.4 °C 4.3 °C 1015.8 hPa Calm     93 % 0 mm
03:59 5.2 °C 4 °C 1015.8 hPa Calm     92 % 0 mm
04:04 4.9 °C 3.8 °C 1015.8 hPa Calm     92 % 0 mm
04:09 4.7 °C 3.6 °C 1015.8 hPa South 3.7 km/h 1.4 km/h 92 % 0 mm
04:14 4.6 °C 3.4 °C 1015.8 hPa Calm     92 % 0 mm
04:19 4.4 °C 3.3 °C 1015.8 hPa Calm     92 % 0 mm
04:24 4.3 °C 3.1 °C 1015.8 hPa Calm     92 % 0 mm
04:29 4.1 °C 2.9 °C 1015.8 hPa Calm   0.3 km/h 92 % 0 mm
04:34 4 °C 2.9 °C 1015.8 hPa South 3.7 km/h 3.7 km/h 93 % 0 mm
04:39 4.2 °C 3.3 °C 1015.8 hPa North 5.6 km/h 3.1 km/h 94 % 0 mm
04:44 4.5 °C 3.6 °C 1015.5 hPa South 3.7 km/h 2.9 km/h 94 % 0 mm
04:49 4.6 °C 3.7 °C 1015.8 hPa North 5.6 km/h 0.6 km/h 94 % 0 mm
04:54 4.6 °C 3.6 °C 1015.8 hPa Calm     93 % 0 mm
04:59 4.3 °C 3.1 °C 1015.5 hPa South 3.7 km/h 1.4 km/h 92 % 0 mm
05:04 4.1 °C 3 °C 1015.8 hPa South 5.6 km/h 2.6 km/h 93 % 0 mm
05:09 4.1 °C 3.1 °C 1015.8 hPa South 5.6 km/h 3.7 km/h 93 % 0 mm
05:14 4.3 °C 3.4 °C 1015.8 hPa South 3.7 km/h 2.4 km/h 94 % 0 mm
05:19 4.4 °C 3.5 °C 1016.1 hPa Calm     94 % 0 mm
05:24 4.4 °C 3.6 °C 1016.1 hPa North 3.7 km/h 2.9 km/h 94 % 0 mm
05:29 4.6 °C 3.7 °C 1016.5 hPa North 3.7 km/h 2.6 km/h 94 % 0 mm
05:34 4.8 °C 3.9 °C 1016.5 hPa North 5.6 km/h 4.5 km/h 94 % 0 mm
05:39 5 °C 4.1 °C 1016.5 hPa South 5.6 km/h 4.8 km/h 94 % 0 mm
05:44 5.4 °C 4.7 °C 1016.5 hPa North 5.6 km/h 4.5 km/h 95 % 0 mm
05:49 5.7 °C 4.8 °C 1016.1 hPa North 5.6 km/h 4.7 km/h 94 % 0 mm
05:54 5.6 °C 4.7 °C 1016.1 hPa South 5.6 km/h 2.9 km/h 94 % 0 mm
05:59 5.4 °C 4.4 °C 1016.1 hPa South 5.6 km/h 2.6 km/h 93 % 0 mm
06:04 5.2 °C 4.2 °C 1016.5 hPa North 3.7 km/h 2.1 km/h 93 % 0 mm
06:09 4.9 °C 4.1 °C 1016.5 hPa South 3.7 km/h 0.8 km/h 94 % 0 mm
06:14 4.8 °C 3.9 °C 1016.5 hPa South 3.7 km/h 1.6 km/h 94 % 0 mm
06:19 4.7 °C 3.7 °C 1016.1 hPa South 3.2 km/h 0.6 km/h 93 % 0 mm
06:24 4.6 °C 3.6 °C 1016.1 hPa South 3.7 km/h 1 km/h 93 % 0 mm
06:29 4.5 °C 3.6 °C 1016.1 hPa Calm     94 % 0 mm
06:34 4.3 °C 3.4 °C 1016.1 hPa Calm     94 % 0 mm
06:39 4.3 °C 3.4 °C 1016.1 hPa Calm     94 % 0 mm
06:44 4.3 °C 3.4 °C 1016.1 hPa Calm     94 % 0 mm
06:49 4.3 °C 3.4 °C 1016.1 hPa Calm     94 % 0 mm
06:54 4.2 °C 3.3 °C 1016.1 hPa Calm     94 % 0 mm
06:59 4.3 °C 3.4 °C 1016.5 hPa North 1.9 km/h   94 % 0 mm
07:04 4.4 °C 3.7 °C 1016.5 hPa Calm     95 % 0 mm
07:09 4.6 °C 3.9 °C 1016.5 hPa South 1.9 km/h 0.6 km/h 95 % 0 mm
07:14 4.8 °C 4.1 °C 1016.5 hPa South 1.9 km/h 0.2 km/h 95 % 0 mm
07:19 5.1 °C 4.4 °C 1016.8 hPa South 5.6 km/h 2.7 km/h 95 % 0 mm
07:24 5.3 °C 4.6 °C 1016.8 hPa North 3.2 km/h 2.4 km/h 95 % 0 mm
07:29 5.7 °C 5 °C 1016.8 hPa North 5.6 km/h 4.5 km/h 95 % 0 mm
07:34 6.2 °C 5.6 °C 1016.8 hPa South 5.6 km/h 3.7 km/h 96 % 0 mm
07:39 6.6 °C 5.8 °C 1017.2 hPa South 9.3 km/h 6.9 km/h 95 % 0 mm
07:44 6.9 °C 6.3 °C 1017.5 hPa South 7.4 km/h 5.8 km/h 96 % 0 mm
07:49 7.3 °C 6.6 °C 1017.5 hPa South 11.3 km/h 10.1 km/h 95 % 0 mm
07:54 7.7 °C 6.9 °C 1017.5 hPa South 14.8 km/h 12.4 km/h 95 % 0 mm
07:59 7.9 °C 7.1 °C 1017.5 hPa South 20.4 km/h 10.8 km/h 95 % 0 mm
08:04 8 °C 7.2 °C 1017.5 hPa SSW 20.9 km/h 13.7 km/h 95 % 0 mm
08:09 8.2 °C 7.4 °C 1017.5 hPa SW 18.5 km/h 15.4 km/h 95 % 0 mm
08:14 8.6 °C 7.8 °C 1017.5 hPa North 31.5 km/h 15.4 km/h 95 % 0 mm
08:19 8.7 °C 7.8 °C 1017.5 hPa SSW 24.1 km/h 13.7 km/h 94 % 0 mm
08:24 8.9 °C 8 °C 1017.8 hPa SSW 22.2 km/h 17.5 km/h 94 % 0 mm
08:29 9.1 °C 8.2 °C 1017.8 hPa North 25.9 km/h 17.7 km/h 94 % 0 mm
08:34 9.3 °C 8.2 °C 1017.8 hPa SSW 18.5 km/h 12.6 km/h 93 % 0 mm
08:39 9.3 °C 8.3 °C 1017.8 hPa SSW 16.7 km/h 13.4 km/h 93 % 0 mm
08:42 9.4 °C 8.3 °C 1017.8 hPa SSW 16.7 km/h 10.3 km/h 93 % 0 mm
09:54 12.1 °C 9.3 °C 1017.5 hPa SW 22.5 km/h 16.7 km/h 83 % 0 mm
09:59 12.7 °C 9.5 °C 1017.5 hPa SSW 22.2 km/h 14.8 km/h 81 % 0 mm
10:04 12.8 °C 9.3 °C 1017.5 hPa SSW 33.8 km/h 16.6 km/h 79 % 0 mm
10:09 12.6 °C 8.7 °C 1017.5 hPa South 33.3 km/h 21.7 km/h 77 % 0 mm
10:14 12.8 °C 9.1 °C 1017.5 hPa SW 27.8 km/h 17.1 km/h 78 % 0 mm
10:19 13.4 °C 9.2 °C 1017.2 hPa SW 33.3 km/h 17.1 km/h 76 % 0 mm
10:24 13.8 °C 9.3 °C 1017.2 hPa SSW 37 km/h 24.3 km/h 74 % 0 mm
10:29 13.8 °C 9.1 °C 1017.2 hPa SSW 31.5 km/h 22.5 km/h 73 % 0 mm
10:34 14.1 °C 9.1 °C 1017.2 hPa SSW 25.9 km/h 18 km/h 72 % 0 mm
10:39 14.3 °C 9.3 °C 1017.2 hPa SW 18.5 km/h 11.6 km/h 72 % 0 mm
10:44 14.2 °C 8.8 °C 1017.2 hPa SW 27.8 km/h 13 km/h 70 % 0 mm
10:49 14.4 °C 9.2 °C 1017.2 hPa North 27.8 km/h 19.8 km/h 71 % 0 mm
10:54 14.4 °C 9.2 °C 1017.2 hPa WSW 22.2 km/h 16.1 km/h 71 % 0 mm
10:59 14.7 °C 9.3 °C 1016.8 hPa SW 25.9 km/h 20 km/h 70 % 0 mm
11:04 14.7 °C 9.1 °C 1016.8 hPa West 31.5 km/h 19.2 km/h 69 % 0 mm
11:09 15 °C 9.1 °C 1017.2 hPa SW 29.6 km/h 17.4 km/h 68 % 0 mm
11:14 15.2 °C 9.3 °C 1017.2 hPa SSW 27.8 km/h 18 km/h 68 % 0 mm
11:19 15.7 °C 9.3 °C 1017.2 hPa SSW 35.4 km/h 28.3 km/h 66 % 0 mm
11:23 15.7 °C 9.1 °C 1017.2 hPa SW 38.9 km/h 26.6 km/h 65 % 0 mm
11:38 15.5 °C 8.9 °C 1017.2 hPa WSW 38.9 km/h 24.6 km/h 65 % 0 mm
11:42 15.3 °C 8.7 °C 1017.2 hPa SSW 38.9 km/h 38.5 km/h 65 % 0 mm
11:49 15.2 °C 8.9 °C 1017.2 hPa SW 38.9 km/h 38.9 km/h 66 % 0 mm
11:54 15.6 °C 9.4 °C 1017.2 hPa SW 24.1 km/h 16.6 km/h 67 % 0 mm
11:59 15.3 °C 9 °C 1017.2 hPa SSW 31.5 km/h 20.6 km/h 66 % 0 mm
12:04 15.4 °C 9.3 °C 1017.2 hPa SSW 27.8 km/h 22.4 km/h 67 % 0 mm
12:09 15.7 °C 9.4 °C 1017.2 hPa SW 35.4 km/h 22.9 km/h 66 % 0 mm
12:14 16 °C 9.4 °C 1017.2 hPa SW 16.7 km/h 17.9 km/h 65 % 0 mm
12:19 16.2 °C 9.3 °C 1017.2 hPa SW 24.1 km/h 12.4 km/h 64 % 0 mm
12:24 16.6 °C 9.6 °C 1017.2 hPa WSW 20.4 km/h 15 km/h 63 % 0 mm
12:29 16.7 °C 9.4 °C 1016.8 hPa WSW 37 km/h 26.4 km/h 62 % 0 mm
12:34 16.5 °C 9.2 °C 1016.8 hPa SW 29.6 km/h 27.8 km/h 62 % 0 mm
12:39 16.4 °C 9.1 °C 1016.8 hPa SW 27.8 km/h 18.3 km/h 62 % 0 mm
12:44 16.2 °C 8.6 °C 1016.8 hPa SW 35.2 km/h 16.4 km/h 61 % 0 mm
12:49 15.9 °C 9.3 °C 1016.8 hPa WSW 24.1 km/h 17.1 km/h 65 % 0 mm
12:54 16.1 °C 9.5 °C 1016.8 hPa WSW 27.8 km/h 17.4 km/h 65 % 0 mm
12:59 16.3 °C 9.2 °C 1016.8 hPa SSW 25.9 km/h 17.1 km/h 63 % 0 mm
13:04 16.5 °C 9.7 °C 1016.8 hPa North 25.9 km/h 22.7 km/h 64 % 0 mm
13:09 17.2 °C 9.8 °C 1016.5 hPa SSW 24.1 km/h 15.9 km/h 62 % 0 mm
13:14 16.9 °C 8.8 °C 1016.5 hPa SSW 31.5 km/h 22.7 km/h 59 % 0 mm
13:19 16.7 °C 8.9 °C 1016.5 hPa SW 22.2 km/h 13.8 km/h 60 % 0 mm
13:24 16.7 °C 9.1 °C 1016.5 hPa SW 27.8 km/h 15 km/h 61 % 0 mm
13:29 17.1 °C 9.2 °C 1016.5 hPa WSW 31.5 km/h 17.1 km/h 60 % 0 mm
13:34 17.8 °C 9.2 °C 1016.5 hPa SW 27.8 km/h 19.8 km/h 57 % 0 mm
13:39 18 °C 8.8 °C 1016.5 hPa WSW 31.5 km/h 22.2 km/h 55 % 0 mm
13:44 18.1 °C 9.2 °C 1016.5 hPa SW 31.5 km/h 18.2 km/h 56 % 0 mm
13:49 18.2 °C 8.2 °C 1016.5 hPa SW 27.8 km/h 16.6 km/h 52 % 0 mm
13:54 18.2 °C 8.8 °C 1016.5 hPa WSW 31.5 km/h 20.1 km/h 54 % 0 mm
13:59 17.9 °C 9.1 °C 1016.5 hPa SSW 18.5 km/h 14.2 km/h 56 % 0 mm
14:04 18.2 °C 8.2 °C 1016.5 hPa WSW 24.1 km/h 16.7 km/h 52 % 0 mm
14:09 18.2 °C 7.8 °C 1016.5 hPa SW 22.2 km/h 19.5 km/h 51 % 0 mm
14:14 17.7 °C 7.7 °C 1016.1 hPa SSE 31.5 km/h 21.9 km/h 52 % 0 mm
14:19 18.1 °C 7.5 °C 1016.5 hPa SW 29 km/h 16.9 km/h 50 % 0 mm
14:24 18.5 °C 7.6 °C 1016.1 hPa WSW 31.5 km/h 13 km/h 49 % 0 mm
14:29 18.7 °C 8.1 °C 1016.1 hPa WSW 29 km/h 20.8 km/h 50 % 0 mm
14:31 18.8 °C 7.8 °C 1016.1 hPa WSW 27.8 km/h 18.2 km/h 49 % 0 mm
15:34 18.1 °C 8.1 °C 1016.1 hPa South 27.8 km/h 19.3 km/h 52 % 0 mm
15:39 17.9 °C 8.2 °C 1016.1 hPa SSW 24.1 km/h 23.5 km/h 53 % 0 mm
15:44 17.9 °C 8.2 °C 1016.1 hPa South 29.6 km/h 22.9 km/h 53 % 0 mm
15:49 18.2 °C 8.2 °C 1015.8 hPa South 31.5 km/h 21.2 km/h 52 % 0 mm
15:54 18.2 °C 8.2 °C 1016.1 hPa SSW 29.6 km/h 18.3 km/h 52 % 0 mm
15:59 17.7 °C 8.3 °C 1016.1 hPa South 24.1 km/h 20.6 km/h 54 % 0 mm
16:29 17.1 °C 8.5 °C 1015.8 hPa SSW 24.1 km/h 23.5 km/h 57 % 0 mm
16:34 17.1 °C 9.1 °C 1015.8 hPa South 31.5 km/h 23.8 km/h 59 % 0 mm
16:39 16.9 °C 9.3 °C 1015.8 hPa SSE 33.3 km/h 20 km/h 61 % 0 mm
16:41 16.8 °C 9.5 °C 1015.8 hPa South 22.5 km/h 13.2 km/h 62 % 0 mm
16:54 16.4 °C 9.1 °C 1015.8 hPa SW 24.1 km/h 22.2 km/h 62 % 0 mm
16:59 16.4 °C 8.9 °C 1015.8 hPa SSW 31.5 km/h 21.4 km/h 61 % 0 mm
17:04 16.2 °C 8.9 °C 1015.8 hPa SSW 29.6 km/h 14.3 km/h 62 % 0 mm
17:09 16.1 °C 8.8 °C 1016.1 hPa South 31.5 km/h 20.8 km/h 62 % 0 mm
17:14 15.8 °C 8.5 °C 1015.8 hPa SSW 35.2 km/h 15.9 km/h 62 % 0 mm
17:19 16.1 °C 8.6 °C 1015.8 hPa SSW 33.3 km/h 16.9 km/h 61 % 0 mm
17:24 16.2 °C 8.4 °C 1016.1 hPa South 33.3 km/h 20.1 km/h 60 % 0 mm
17:29 15.9 °C 8.4 °C 1016.1 hPa SE 31.5 km/h 12.7 km/h 61 % 0 mm
17:34 15.8 °C 8.5 °C 1016.1 hPa SW 22.2 km/h 15.6 km/h 62 % 0 mm
17:39 15.7 °C 8.2 °C 1016.1 hPa South 31.5 km/h 25.6 km/h 61 % 0 mm
17:44 15.7 °C 8.4 °C 1016.1 hPa South 27.4 km/h 20.3 km/h 62 % 0 mm
17:45 15.7 °C 8.4 °C 1016.1 hPa South 19.3 km/h 32.2 km/h 62 % 0 mm
18:14 14.8 °C 8.6 °C 1016.5 hPa SSW 29.6 km/h 24.3 km/h 66 % 0 mm
18:19 14.7 °C 8.6 °C 1016.8 hPa South 29.6 km/h 18.2 km/h 67 % 0 mm
18:24 14.6 °C 8.9 °C 1016.5 hPa SSW 22.5 km/h 15.9 km/h 69 % 0 mm
18:29 14.6 °C 8.9 °C 1016.8 hPa SSW 16.7 km/h 12.4 km/h 69 % 0 mm
18:34 14.5 °C 8.7 °C 1016.8 hPa SSW 30.6 km/h 25.1 km/h 68 % 0 mm
18:39 14.3 °C 8.7 °C 1016.8 hPa SSW 17.7 km/h 13.8 km/h 69 % 0 mm
18:44 14.3 °C 8.9 °C 1016.8 hPa South 22.2 km/h 13 km/h 70 % 0 mm
18:49 14.3 °C 8.9 °C 1016.8 hPa South 22.2 km/h 19.2 km/h 70 % 0 mm
18:54 14.3 °C 8.7 °C 1016.8 hPa SSE 20.9 km/h 18.5 km/h 69 % 0 mm
18:59 14.2 °C 8.3 °C 1016.8 hPa South 31.5 km/h 15 km/h 68 % 0 mm
19:04 14 °C 8.4 °C 1016.8 hPa SSW 19.3 km/h 10.1 km/h 69 % 0 mm
19:09 13.9 °C 8.5 °C 1016.8 hPa SSW 9.3 km/h 5.5 km/h 70 % 0 mm
19:14 13.8 °C 8.4 °C 1016.8 hPa SSW 20.4 km/h 11.9 km/h 70 % 0 mm
19:19 13.7 °C 8.8 °C 1016.8 hPa South 16.7 km/h 9.8 km/h 72 % 0 mm
19:24 13.6 °C 8.2 °C 1017.2 hPa SSW 18.5 km/h 14.5 km/h 70 % 0 mm
19:29 13.6 °C 8.4 °C 1017.2 hPa SSW 16.7 km/h 7.6 km/h 71 % 0 mm
19:34 13.4 °C 8.2 °C 1017.2 hPa South 27.8 km/h 16.1 km/h 71 % 0 mm
19:39 13.2 °C 8.5 °C 1017.2 hPa South 20.4 km/h 14.8 km/h 73 % 0 mm
19:44 13 °C 8.3 °C 1017.5 hPa South 17.7 km/h 11.4 km/h 73 % 0 mm
19:49 12.9 °C 8.4 °C 1017.5 hPa South 16.7 km/h 7.1 km/h 74 % 0 mm
19:54 12.8 °C 8.7 °C 1017.5 hPa South 16.1 km/h 9.3 km/h 76 % 0 mm
19:59 12.7 °C 8.8 °C 1017.5 hPa South 16.1 km/h 9.5 km/h 77 % 0 mm
20:04 12.6 °C 8.9 °C 1017.5 hPa South 16.1 km/h 11.7 km/h 78 % 0 mm
20:09 12.4 °C 8.9 °C 1017.8 hPa South 16.7 km/h 9.2 km/h 79 % 0 mm
20:14 12.2 °C 8.9 °C 1017.8 hPa North 11.3 km/h 11.3 km/h 80 % 0 mm
20:19 12.1 °C 8.9 °C 1017.8 hPa South 14.8 km/h 11.9 km/h 81 % 0 mm
20:24 11.9 °C 8.7 °C 1017.8 hPa South 18.5 km/h 13 km/h 81 % 0 mm
20:29 11.7 °C 8.7 °C 1017.8 hPa North 18.5 km/h 8.2 km/h 82 % 0 mm
20:34 11.6 °C 8.6 °C 1017.8 hPa South 14.8 km/h 9.7 km/h 82 % 0 mm
20:39 11.4 °C 8.6 °C 1017.8 hPa North 13 km/h 8.7 km/h 83 % 0 mm
20:44 11.3 °C 8.7 °C 1017.8 hPa North 11.1 km/h 6.8 km/h 84 % 0 mm
20:49 11.2 °C 8.6 °C 1017.8 hPa South 13 km/h 8.7 km/h 84 % 0 mm
20:54 11.1 °C 8.5 °C 1018.2 hPa South 13 km/h 10 km/h 84 % 0 mm
20:59 11.1 °C 8.6 °C 1018.2 hPa South 12.9 km/h 7.4 km/h 85 % 0 mm
21:04 10.9 °C 8.5 °C 1018.2 hPa South 11.1 km/h 8.4 km/h 85 % 0 mm
21:09 10.8 °C 8.6 °C 1018.2 hPa North 9.3 km/h 6.1 km/h 86 % 0 mm
21:14 10.7 °C 8.5 °C 1018.2 hPa North 13 km/h 3.2 km/h 86 % 0 mm
21:19 10.6 °C 8.4 °C 1018.5 hPa South 9.3 km/h 4.8 km/h 86 % 0 mm
21:24 10.5 °C 8.4 °C 1018.5 hPa South 7.4 km/h 5.1 km/h 87 % 0 mm
21:29 10.3 °C 8.3 °C 1018.5 hPa South 7.4 km/h 6.1 km/h 87 % 0 mm
21:34 10.2 °C 8.2 °C 1018.5 hPa South 9.7 km/h 7.9 km/h 87 % 0 mm
21:39 10.1 °C 8 °C 1018.5 hPa South 7.4 km/h 5.5 km/h 87 % 0 mm
21:44 9.9 °C 7.8 °C 1018.8 hPa South 9.3 km/h 6.6 km/h 87 % 0 mm
21:49 9.8 °C 7.9 °C 1018.5 hPa South 7.4 km/h 6.1 km/h 88 % 0 mm
21:54 9.6 °C 7.7 °C 1018.5 hPa North 8 km/h 7.6 km/h 88 % 0 mm
21:59 9.5 °C 7.6 °C 1018.5 hPa South 13 km/h 6 km/h 88 % 0 mm
22:04 9.3 °C 7.4 °C 1018.8 hPa North 9.3 km/h 8.2 km/h 88 % 0 mm
22:09 9.2 °C 7.4 °C 1018.5 hPa South 16.7 km/h 6 km/h 89 % 0 mm
22:14 9.1 °C 7.4 °C 1018.5 hPa North 9.3 km/h 7.1 km/h 89 % 0 mm
22:19 9 °C 7.3 °C 1018.5 hPa North 13 km/h 8 km/h 89 % 0 mm
22:24 9 °C 7.3 °C 1018.8 hPa South 11.1 km/h 5 km/h 89 % 0 mm
22:29 9.1 °C 7.6 °C 1018.8 hPa South 16.1 km/h 11.3 km/h 90 % 0 mm
22:34 9.3 °C 7.7 °C 1018.5 hPa South 17.7 km/h 11.9 km/h 90 % 0 mm
22:39 9.3 °C 7.6 °C 1018.5 hPa South 20.4 km/h 12.1 km/h 89 % 0 mm
22:44 9.3 °C 7.6 °C 1018.5 hPa SSE 18.5 km/h 9.3 km/h 89 % 0 mm
22:49 9.2 °C 7.3 °C 1018.8 hPa South 20.4 km/h 15.6 km/h 88 % 0 mm
22:54 9.2 °C 7.3 °C 1018.8 hPa North 16.1 km/h 12.4 km/h 88 % 0 mm
22:59 9.1 °C 7.2 °C 1018.8 hPa South 20.4 km/h 9.7 km/h 88 % 0 mm
23:04 9 °C 7.1 °C 1018.8 hPa South 11.3 km/h 7.7 km/h 88 % 0 mm
23:09 8.9 °C 7 °C 1018.8 hPa South 18.5 km/h 11.4 km/h 88 % 0 mm
23:14 8.7 °C 6.8 °C 1018.8 hPa North 18.5 km/h 8.9 km/h 88 % 0 mm
23:19 8.6 °C 6.7 °C 1018.8 hPa South 11.3 km/h 8 km/h 88 % 0 mm
23:24 8.4 °C 6.5 °C 1019.2 hPa South 5.6 km/h 5.5 km/h 88 % 0 mm
23:29 8.2 °C 6.3 °C 1018.8 hPa North 5.6 km/h 3.1 km/h 88 % 0 mm
23:34 8 °C 6.1 °C 1019.2 hPa South 7.4 km/h 5.1 km/h 88 % 0 mm
23:39 7.8 °C 5.9 °C 1019.2 hPa South 7.4 km/h 2.6 km/h 88 % 0 mm
23:44 7.7 °C 5.8 °C 1019.2 hPa South 6.4 km/h 4 km/h 88 % 0 mm
23:49 7.5 °C 5.7 °C 1019.2 hPa South 7.4 km/h 4.2 km/h 88 % 0 mm
23:54 7.3 °C 5.7 °C 1019.2 hPa South 9.7 km/h 7.2 km/h 89 % 0 mm
23:59 7.2 °C 5.5 °C 1019.2 hPa South 11.1 km/h 5.5 km/h 89 % 0 mm
Ararat Weather
Compliments of Weather Underground - 2 mb
Click here to send mail.


ABOUT

Live weather data from Ararat, Victoria, Australia, 3377
Data uploaded from Cumulus every 5 minutes to Weather Underground.
This site then downloads the raw data for formatting and display.
Metric and imperial data can be displayed. Graphs and historical data available.
Includes Sun and Moon times and rain image live from BOM.

Check out Ararat Weather on Facebook, Twitter and Google +

Help support ongoing costs by checking out the ads





Follow @AraratWeather